OIBL Airport Information

Runway Information
Runway 08 Length 8203 ft width 148 ft
Elevation 57 ft Threshold 0 ft Heading 82
Runway 26 Length 8203 ft Width 148 ft
Elevation 67 ft Threshold 0 ft Heading 262
Airport Frequencies
Type AFIS Name INFO Frequency 121.7 MHZ
Airport Navaids
Type VOR-DME Name Bandar Lengeh Frequency 114800 KHZ
Type NDB Name Bandar Lengeh Frequency 408 KHZ
Airport Weather Information & NOTAM
ADDS - METARS form results

(0652 UTC 25 October 2021)
Data provider http://aviationweather.gov/metar/data/
 
METAR text: OIBL 250600Z 18006KT 8000 NSC 32/21 Q1012
Conditions at: OIBL (BANDAR LENGEH , IR) observed 0600 UTC 25 October 2021
Temperature: 32.0°C (90°F)
Dewpoint: 21.0°C (70°F) [RH = 52%]
Pressure (altimeter): 29.88 inches Hg (1012.0 mb)
Winds: from the S (180 degrees) at 7 MPH (6 knots; 3.1 m/s)
Visibility: 5 miles ( 8 km)
Ceiling: at least 12,000 feet AGL
Clouds: sky clear below 12,000 feet AGL
Weather: no significant weather observed at this time